Hebei Shijiazhuang — VRIS2 — position and weather

sailwx.info

Track history (hours):
 
Tides and Currents Weather Stations Pressure Air Temp Water Temp Dewpoint Dewpoint Depression Visibility Wind Speed Wind Dir Waves Ship Positions

Hebei Shijiazhuang

Last reported at 2016-Jul-16 17:25 UTC. Time now 2016-Jul-23 17:02 UTC.
Position N 35°14' E 119°51'.

Length 235 m.

Type: Cargo ship. MMSI: 477899000.

Date/timePositionNaut miles runAvg speedWind from/ knotsBaromVisibWave heightAir tempDewpointWater temp
2016-Jul-16 17:25N 35°14' E 119°51'7 8.4
2016-Jul-16 16:32N 35°16' E 119°43'9 7.9
2016-Jul-16 15:24N 35°20' E 119°33'1 0.1
2016-Jul-15 17:14N 35°21' E 119°32'0 0.0
2016-Jul-15 14:14N 35°21' E 119°32'0 0.0
2016-Jul-15 09:08N 35°21' E 119°32'0 0.0
2016-Jul-15 05:32N 35°21' E 119°32'0 0.0
2016-Jul-14 18:20N 35°21' E 119°32'0 0.0
2016-Jul-14 13:20N 35°21' E 119°32'0 0.0
2016-Jul-14 12:20N 35°21' E 119°32'0 0.0
2016-Jul-14 11:20N 35°21' E 119°32'0 0.0
2016-Jul-13 15:31N 35°21' E 119°32'8 6.6
2016-Jul-13 14:17N 35°18' E 119°41'5 5.9
2016-Jul-13 13:28N 35°19' E 119°47'0 0.1
2016-Jul-13 11:26N 35°19' E 119°47'0 0.0
2016-Jul-12 22:26N 35°19' E 119°47'0 0.0
2016-Jul-12 18:20N 35°19' E 119°47'0 0.0
2016-Jul-10 15:14N 35°19' E 119°47'0 0.0
2016-Jul-10 11:14N 35°19' E 119°47'0 0.1
2016-Jul-10 08:20N 35°19' E 119°47'0 0.0
2016-Jul-10 07:08N 35°19' E 119°47'0 0.0
2016-Jul-10 06:26N 35°19' E 119°47'0 0.0
2016-Jul-10 05:26N 35°19' E 119°47'0 0.0
2016-Jul-08 21:33N 35°19' E 119°47'1 1.3
2016-Jul-08 20:28N 35°18' E 119°48'3 3.5
2016-Jul-08 19:29N 35°15' E 119°49'1 1.2
2016-Jul-08 18:32N 35°14' E 119°51'  
Track history (hours):
 
Tides and Currents Weather Stations Pressure Air Temp Water Temp Dewpoint Dewpoint Depression Visibility Wind Speed Wind Dir Waves Ship Positions

Hebei Shijiazhuang

Last reported at 2016-Jul-16 17:25 UTC. Time now 2016-Jul-23 17:02 UTC.
Position N 35°14' E 119°51'.

Length 235 m.

Type: Cargo ship. MMSI: 477899000.

Date/timePositionNaut miles runAvg speedWind from/ knotsBaromVisibWave heightAir tempDewpointWater temp
2016-Jul-16 17:25N 35°14' E 119°51'7 8.4
2016-Jul-16 16:32N 35°16' E 119°43'9 7.9
2016-Jul-16 15:24N 35°20' E 119°33'1 0.1
2016-Jul-15 17:14N 35°21' E 119°32'0 0.0
2016-Jul-15 14:14N 35°21' E 119°32'0 0.0
2016-Jul-15 09:08N 35°21' E 119°32'0 0.0
2016-Jul-15 05:32N 35°21' E 119°32'0 0.0
2016-Jul-14 18:20N 35°21' E 119°32'0 0.0
2016-Jul-14 13:20N 35°21' E 119°32'0 0.0
2016-Jul-14 12:20N 35°21' E 119°32'0 0.0
2016-Jul-14 11:20N 35°21' E 119°32'0 0.0
2016-Jul-13 15:31N 35°21' E 119°32'8 6.6
2016-Jul-13 14:17N 35°18' E 119°41'5 5.9
2016-Jul-13 13:28N 35°19' E 119°47'0 0.1
2016-Jul-13 11:26N 35°19' E 119°47'0 0.0
2016-Jul-12 22:26N 35°19' E 119°47'0 0.0
2016-Jul-12 18:20N 35°19' E 119°47'0 0.0
2016-Jul-10 15:14N 35°19' E 119°47'0 0.0
2016-Jul-10 11:14N 35°19' E 119°47'0 0.1
2016-Jul-10 08:20N 35°19' E 119°47'0 0.0
2016-Jul-10 07:08N 35°19' E 119°47'0 0.0
2016-Jul-10 06:26N 35°19' E 119°47'0 0.0
2016-Jul-10 05:26N 35°19' E 119°47'0 0.0
2016-Jul-08 21:33N 35°19' E 119°47'1 1.3
2016-Jul-08 20:28N 35°18' E 119°48'3 3.5
2016-Jul-08 19:29N 35°15' E 119°49'1 1.2
2016-Jul-08 18:32N 35°14' E 119°51'  

Dump ship's entire track history